createdAt,value
2023-02-11T00:01:30.711Z,34.39
2023-02-11T00:03:57.097Z,35.65
2023-02-11T00:06:23.455Z,39.38
2023-02-11T00:08:49.843Z,36.12
2023-02-11T00:11:16.241Z,34.72
2023-02-11T00:13:42.618Z,33.51
2023-02-11T00:16:09.054Z,34.04
2023-02-11T00:18:35.437Z,33.11
2023-02-11T00:21:01.855Z,34.00
2023-02-11T00:23:28.239Z,33.55
2023-02-11T00:25:54.626Z,34.49
2023-02-11T00:28:21.280Z,35.22
2023-02-11T00:30:47.773Z,35.34
2023-02-11T00:33:14.199Z,34.32
2023-02-11T00:35:40.595Z,34.68
2023-02-11T00:38:07.012Z,35.96
2023-02-11T00:40:33.396Z,34.14
2023-02-11T00:42:59.837Z,34.62
2023-02-11T00:45:26.199Z,35.15
2023-02-11T00:47:53.937Z,35.16
2023-02-11T00:50:20.313Z,34.45
2023-02-11T00:52:46.698Z,35.09
2023-02-11T00:55:13.094Z,34.73
2023-02-11T00:57:39.455Z,35.31
2023-02-11T01:00:05.890Z,34.78
2023-02-11T01:02:32.272Z,34.83
2023-02-11T01:04:58.699Z,34.62
2023-02-11T01:07:25.142Z,35.57
2023-02-11T01:09:51.532Z,35.56
2023-02-11T01:12:17.931Z,35.55
2023-02-11T01:14:44.320Z,36.12
2023-02-11T01:17:10.697Z,36.55
2023-02-11T01:19:37.101Z,35.00
2023-02-11T01:22:03.491Z,34.63
2023-02-11T01:24:29.890Z,34.20
2023-02-11T01:26:56.298Z,33.94
2023-02-11T01:29:22.706Z,34.28
2023-02-11T01:31:49.151Z,33.31
2023-02-11T01:34:15.573Z,33.00
2023-02-11T01:36:42.002Z,33.09
2023-02-11T01:39:08.400Z,31.92
2023-02-11T01:41:34.780Z,32.04
2023-02-11T01:44:01.149Z,30.93
2023-02-11T01:46:27.598Z,31.30
2023-02-11T01:48:54.063Z,30.23
2023-02-11T01:51:20.550Z,30.21
2023-02-11T01:53:46.954Z,29.79
2023-02-11T01:56:13.319Z,29.63
2023-02-11T01:58:39.713Z,29.90
2023-02-11T02:01:06.074Z,30.86
2023-02-11T02:03:32.494Z,30.33
2023-02-11T02:05:58.946Z,30.23
2023-02-11T02:08:25.345Z,30.83
2023-02-11T02:10:51.764Z,31.35
2023-02-11T02:13:18.137Z,31.38
2023-02-11T02:15:44.567Z,32.00
2023-02-11T02:18:11.051Z,31.50
2023-02-11T02:20:37.526Z,32.28
2023-02-11T02:23:03.934Z,33.07
2023-02-11T02:25:30.306Z,32.92
2023-02-11T02:27:56.776Z,34.12
2023-02-11T02:30:23.192Z,32.82
2023-02-11T02:32:49.590Z,33.26
2023-02-11T02:35:16.048Z,32.62
2023-02-11T02:37:42.464Z,32.63
2023-02-11T02:40:08.867Z,31.65
2023-02-11T02:42:35.241Z,32.21
2023-02-11T02:45:01.641Z,32.33
2023-02-11T02:47:28.025Z,31.14
2023-02-11T02:49:54.417Z,31.74
2023-02-11T02:52:20.808Z,32.33
2023-02-11T02:54:47.173Z,33.61
2023-02-11T02:57:13.588Z,32.54
2023-02-11T02:59:39.962Z,33.55
2023-02-11T03:02:06.333Z,34.47
2023-02-11T03:04:32.706Z,35.88
2023-02-11T03:06:59.065Z,36.60
2023-02-11T03:09:25.452Z,35.22
2023-02-11T03:11:51.831Z,35.03
2023-02-11T03:14:18.220Z,35.46
2023-02-11T03:16:44.579Z,35.55
2023-02-11T03:19:11.016Z,34.76
2023-02-11T03:21:37.399Z,34.08
2023-02-11T03:24:03.773Z,34.03
2023-02-11T03:26:30.197Z,34.09
2023-02-11T03:28:56.566Z,32.59
2023-02-11T03:31:23.077Z,33.90
2023-02-11T03:33:49.576Z,33.42
2023-02-11T03:36:15.955Z,31.06
2023-02-11T03:38:42.335Z,31.88
2023-02-11T03:41:08.751Z,32.01
2023-02-11T03:43:35.141Z,31.69
2023-02-11T03:46:01.602Z,31.45
2023-02-11T03:48:28.029Z,31.38
2023-02-11T03:50:54.397Z,30.91
2023-02-11T03:53:20.777Z,31.16
2023-02-11T03:55:47.149Z,31.28
2023-02-11T03:58:13.529Z,29.84
2023-02-11T04:00:39.955Z,30.47
2023-02-11T04:03:06.372Z,30.11
2023-02-11T04:05:32.926Z,30.43
2023-02-11T04:07:59.308Z,30.51
2023-02-11T04:10:25.703Z,30.10
2023-02-11T04:12:52.080Z,30.93
2023-02-11T04:15:18.516Z,31.52
2023-02-11T04:17:44.908Z,31.92
2023-02-11T04:20:11.311Z,31.59
2023-02-11T04:22:37.692Z,31.62
2023-02-11T04:25:04.076Z,30.96
2023-02-11T04:27:30.464Z,31.88
2023-02-11T04:29:56.837Z,31.26
2023-02-11T04:32:23.290Z,32.07
2023-02-11T04:34:49.680Z,32.06
2023-02-11T04:37:16.072Z,31.65
2023-02-11T04:39:42.441Z,31.40
2023-02-11T04:42:08.806Z,31.98
2023-02-11T04:44:35.224Z,31.98
2023-02-11T04:47:01.613Z,32.82
2023-02-11T04:49:28.034Z,32.51
2023-02-11T04:51:54.462Z,32.28
2023-02-11T04:54:20.852Z,32.20
2023-02-11T04:56:47.278Z,31.77
2023-02-11T04:59:13.686Z,32.01
2023-02-11T05:01:40.149Z,33.22
2023-02-11T05:04:06.634Z,32.28
2023-02-11T05:06:33.069Z,32.20
2023-02-11T05:08:59.458Z,31.59
2023-02-11T05:11:25.836Z,32.05
2023-02-11T05:13:52.256Z,31.77
2023-02-11T05:16:18.713Z,32.00
2023-02-11T05:18:45.175Z,31.55
2023-02-11T05:21:11.583Z,31.54
2023-02-11T05:23:37.992Z,30.42
2023-02-11T05:26:04.401Z,30.12
2023-02-11T05:28:30.844Z,29.52
2023-02-11T05:30:57.289Z,29.17
2023-02-11T05:33:23.678Z,29.63
2023-02-11T05:35:50.325Z,29.96
2023-02-11T05:38:16.902Z,29.91
2023-02-11T05:40:43.277Z,30.04
2023-02-11T05:43:09.662Z,29.84
2023-02-11T05:45:36.109Z,29.74
2023-02-11T05:48:02.502Z,29.57
2023-02-11T05:50:28.878Z,29.39
2023-02-11T05:52:55.324Z,28.88
2023-02-11T05:55:24.615Z,29.15
2023-02-11T05:57:51.049Z,29.35
2023-02-11T06:00:17.443Z,29.29
2023-02-11T06:02:44.092Z,28.86
2023-02-11T06:05:10.552Z,28.92
2023-02-11T06:07:36.949Z,29.46
2023-02-11T06:10:03.352Z,28.84
2023-02-11T06:12:29.750Z,30.05
2023-02-11T06:14:56.132Z,29.66
2023-02-11T06:17:22.517Z,29.99
2023-02-11T06:19:48.912Z,29.49
2023-02-11T06:22:15.323Z,29.71
2023-02-11T06:25:00.205Z,28.80
2023-02-11T06:27:27.540Z,30.21
2023-02-11T06:29:53.927Z,30.47
2023-02-11T06:32:37.256Z,30.34
2023-02-11T06:35:06.181Z,29.75
2023-02-11T06:37:32.549Z,29.85
2023-02-11T06:39:58.896Z,30.03
2023-02-11T06:42:25.315Z,30.00
2023-02-11T06:44:51.728Z,30.01
2023-02-11T06:47:18.112Z,29.72
2023-02-11T06:49:44.464Z,30.24
2023-02-11T06:52:10.880Z,29.82
2023-02-11T06:54:37.243Z,29.68
2023-02-11T06:57:03.634Z,29.70
2023-02-11T06:59:30.036Z,29.86
2023-02-11T07:01:56.476Z,29.30
2023-02-11T07:04:22.902Z,29.24
2023-02-11T07:06:49.293Z,29.37
2023-02-11T07:09:15.696Z,30.83
2023-02-11T07:11:42.082Z,30.52
2023-02-11T07:14:08.496Z,30.24
2023-02-11T07:16:34.962Z,30.19
2023-02-11T07:19:01.360Z,30.38
2023-02-11T07:21:27.778Z,30.16
2023-02-11T07:23:54.162Z,29.98
2023-02-11T07:26:20.525Z,31.14
2023-02-11T07:28:46.897Z,32.38
2023-02-11T07:31:13.448Z,32.45
2023-02-11T07:33:39.912Z,32.04
2023-02-11T07:36:06.286Z,32.98
2023-02-11T07:38:32.661Z,33.12
2023-02-11T07:40:59.088Z,33.47
2023-02-11T07:43:25.465Z,34.93
2023-02-11T07:45:51.994Z,33.78
2023-02-11T07:48:18.495Z,34.60
2023-02-11T07:50:44.898Z,34.91
2023-02-11T07:53:11.286Z,35.92
2023-02-11T07:55:37.662Z,36.17
2023-02-11T07:58:04.029Z,36.39
2023-02-11T08:00:31.784Z,35.74
2023-02-11T08:02:58.155Z,36.25
2023-02-11T08:05:24.527Z,31.84
2023-02-11T08:07:50.962Z,35.44
2023-02-11T08:10:17.359Z,35.57
2023-02-11T08:12:43.737Z,36.75
2023-02-11T08:15:10.127Z,36.51
2023-02-11T08:17:36.505Z,37.13
2023-02-11T08:20:02.885Z,38.37
2023-02-11T08:22:29.355Z,39.41
2023-02-11T08:24:55.707Z,39.32
2023-02-11T08:27:22.074Z,40.03
2023-02-11T08:29:48.484Z,40.49
2023-02-11T08:32:14.889Z,39.40
2023-02-11T08:34:41.300Z,39.82
2023-02-11T08:37:07.702Z,40.35
2023-02-11T08:39:34.100Z,40.44
2023-02-11T08:42:00.489Z,43.34
2023-02-11T08:44:26.875Z,44.25
2023-02-11T08:46:53.267Z,44.32
2023-02-11T08:49:19.660Z,45.30
2023-02-11T08:51:46.100Z,47.30
2023-02-11T08:54:12.495Z,48.30
2023-02-11T08:56:38.978Z,51.32
2023-02-11T08:59:05.405Z,47.15
2023-02-11T09:01:31.899Z,48.83
2023-02-11T09:03:58.367Z,47.60
2023-02-11T09:06:24.756Z,47.01
2023-02-11T09:08:51.125Z,45.78
2023-02-11T09:11:17.501Z,45.75
2023-02-11T09:13:43.917Z,46.77
2023-02-11T09:16:10.393Z,45.86
2023-02-11T09:18:36.781Z,45.47
2023-02-11T09:21:03.181Z,45.04
2023-02-11T09:23:29.612Z,44.49
2023-02-11T09:25:55.999Z,44.77
2023-02-11T09:28:22.470Z,43.43
2023-02-11T09:30:48.981Z,44.93
2023-02-11T09:33:15.518Z,45.53
2023-02-11T09:35:41.929Z,44.44
2023-02-11T09:38:08.354Z,44.70
2023-02-11T09:40:34.719Z,45.16
2023-02-11T09:43:04.019Z,43.12
2023-02-11T09:45:30.593Z,42.78
2023-02-11T09:47:56.971Z,41.66
2023-02-11T09:50:23.364Z,42.32
2023-02-11T09:52:49.825Z,42.19
2023-02-11T09:55:16.178Z,42.89
2023-02-11T09:57:42.569Z,44.57
2023-02-11T10:00:08.952Z,45.29
2023-02-11T10:02:35.368Z,46.03
2023-02-11T10:05:01.773Z,46.68
2023-02-11T10:07:28.138Z,46.50
2023-02-11T10:09:54.532Z,48.27
2023-02-11T10:12:20.937Z,46.95
2023-02-11T10:14:47.308Z,49.44
2023-02-11T10:17:13.750Z,47.93
2023-02-11T10:19:40.110Z,47.35
2023-02-11T10:22:06.496Z,47.01
2023-02-11T10:24:32.879Z,46.59
2023-02-11T10:26:59.251Z,47.30
2023-02-11T10:29:25.646Z,47.34
2023-02-11T10:31:52.047Z,47.33
2023-02-11T10:34:18.475Z,47.24
2023-02-11T10:36:44.851Z,47.18
2023-02-11T10:39:11.264Z,47.58
2023-02-11T10:41:37.657Z,47.26
2023-02-11T10:44:04.043Z,46.60
2023-02-11T10:46:30.467Z,47.35
2023-02-11T10:48:56.848Z,47.40
2023-02-11T10:51:23.211Z,46.56
2023-02-11T10:53:49.601Z,46.60
2023-02-11T10:56:15.968Z,47.24
2023-02-11T10:58:42.385Z,47.39
2023-02-11T11:01:23.412Z,47.84
2023-02-11T11:03:50.886Z,47.33
2023-02-11T11:06:17.258Z,48.66
2023-02-11T11:08:43.645Z,49.07
2023-02-11T11:11:10.114Z,50.32
2023-02-11T11:13:36.518Z,51.82
2023-02-11T11:16:02.988Z,49.32
2023-02-11T11:18:29.385Z,47.97
2023-02-11T11:20:55.829Z,47.80
2023-02-11T11:23:22.205Z,47.72
2023-02-11T11:25:48.561Z,49.42
2023-02-11T11:28:14.986Z,48.21
2023-02-11T11:30:41.516Z,49.01
2023-02-11T11:33:07.885Z,47.92
2023-02-11T11:35:34.295Z,48.09
2023-02-11T11:38:01.922Z,49.01
2023-02-11T11:40:28.566Z,49.82
2023-02-11T11:42:54.949Z,48.20
2023-02-11T11:45:21.327Z,47.74
2023-02-11T11:47:47.713Z,47.59
2023-02-11T11:50:14.095Z,47.02
2023-02-11T11:52:40.514Z,49.23
2023-02-11T11:55:06.884Z,47.69
2023-02-11T11:57:33.285Z,47.07
2023-02-11T11:59:59.666Z,46.02
2023-02-11T12:02:26.185Z,45.67
2023-02-11T12:04:52.578Z,47.20
2023-02-11T12:07:18.955Z,51.25
2023-02-11T12:09:45.357Z,47.01
2023-02-11T12:12:11.795Z,46.42
2023-02-11T12:14:38.221Z,46.70
2023-02-11T12:17:04.596Z,48.09
2023-02-11T12:19:30.960Z,46.36
2023-02-11T12:21:57.325Z,47.11
2023-02-11T12:24:23.702Z,47.11
2023-02-11T12:26:50.096Z,46.51
2023-02-11T12:29:16.476Z,45.93
2023-02-11T12:31:42.921Z,46.80
2023-02-11T12:34:09.354Z,45.66
2023-02-11T12:36:35.733Z,45.64
2023-02-11T12:39:02.103Z,44.88
2023-02-11T12:41:28.498Z,45.74
2023-02-11T12:43:54.900Z,44.94
2023-02-11T12:46:21.355Z,44.95
2023-02-11T12:48:47.743Z,45.15
2023-02-11T12:51:14.108Z,43.21
2023-02-11T12:53:40.532Z,44.20
2023-02-11T12:56:06.936Z,44.74
2023-02-11T12:58:44.449Z,44.55
2023-02-11T13:01:12.008Z,45.57
2023-02-11T13:03:38.426Z,44.22
2023-02-11T13:06:04.825Z,43.94
2023-02-11T13:08:31.226Z,44.08
2023-02-11T13:10:57.628Z,45.55
2023-02-11T13:13:24.053Z,45.05
2023-02-11T13:15:50.459Z,44.15
2023-02-11T13:18:19.028Z,45.37
2023-02-11T13:20:45.631Z,45.15
2023-02-11T13:23:12.001Z,45.46
2023-02-11T13:25:38.354Z,43.45
2023-02-11T13:28:04.763Z,43.77
2023-02-11T13:30:31.205Z,44.22
2023-02-11T13:32:57.650Z,44.14
2023-02-11T13:35:24.044Z,45.27
2023-02-11T13:37:50.413Z,44.37
2023-02-11T13:40:16.850Z,43.20
2023-02-11T13:42:43.214Z,42.73
2023-02-11T13:45:09.586Z,42.62
2023-02-11T13:47:35.971Z,42.68
2023-02-11T13:50:02.372Z,42.20
2023-02-11T13:52:28.752Z,42.02
2023-02-11T13:54:55.184Z,41.68
2023-02-11T13:57:21.560Z,41.27
2023-02-11T13:59:47.932Z,41.35
2023-02-11T14:02:14.404Z,41.48
2023-02-11T14:04:40.862Z,41.57
2023-02-11T14:07:07.226Z,42.31
2023-02-11T14:09:33.624Z,41.36
2023-02-11T14:11:59.982Z,41.44
2023-02-11T14:14:26.387Z,41.86
2023-02-11T14:16:52.823Z,40.29
2023-02-11T14:19:19.238Z,40.08
2023-02-11T14:21:45.691Z,40.31
2023-02-11T14:24:12.077Z,39.47
2023-02-11T14:26:38.503Z,39.05
2023-02-11T14:29:04.885Z,38.40
2023-02-11T14:31:31.392Z,38.37
2023-02-11T14:33:57.908Z,38.82
2023-02-11T14:36:24.389Z,38.97
2023-02-11T14:38:50.782Z,38.92
2023-02-11T14:41:17.180Z,38.78
2023-02-11T14:43:43.603Z,39.23
2023-02-11T14:46:10.098Z,38.43
2023-02-11T14:48:36.555Z,37.85
2023-02-11T14:51:03.017Z,37.91
2023-02-11T14:53:29.446Z,37.72
2023-02-11T14:55:55.839Z,37.79
2023-02-11T14:58:22.244Z,38.67
2023-02-11T15:00:48.711Z,37.41
2023-02-11T15:03:15.169Z,37.59
2023-02-11T15:05:41.558Z,37.49
2023-02-11T15:08:09.974Z,38.25
2023-02-11T15:10:36.454Z,37.99
2023-02-11T15:13:02.841Z,37.99
2023-02-11T15:15:29.243Z,37.94
2023-02-11T15:17:55.628Z,37.43
2023-02-11T15:20:22.065Z,37.34
2023-02-11T15:22:48.448Z,36.37
2023-02-11T15:25:14.850Z,37.03
2023-02-11T15:27:41.311Z,36.10
2023-02-11T15:30:07.693Z,35.70
2023-02-11T15:32:34.105Z,36.37
2023-02-11T15:35:00.573Z,35.19
2023-02-11T15:37:26.961Z,34.92
2023-02-11T15:39:53.442Z,34.39
2023-02-11T15:42:19.842Z,35.01
2023-02-11T15:44:46.540Z,34.14
2023-02-11T15:47:14.353Z,34.96
2023-02-11T15:49:40.746Z,34.64
2023-02-11T15:52:07.317Z,34.09
2023-02-11T15:54:33.700Z,33.77
2023-02-11T15:57:00.144Z,35.12
2023-02-11T15:59:26.570Z,34.97
2023-02-11T16:01:53.012Z,35.21
2023-02-11T16:04:19.439Z,35.73
2023-02-11T16:06:45.865Z,35.51
2023-02-11T16:09:12.343Z,34.63
2023-02-11T16:11:39.096Z,34.57
2023-02-11T16:14:07.109Z,34.75
2023-02-11T16:16:33.663Z,35.03
2023-02-11T16:19:05.242Z,35.24
2023-02-11T16:21:32.337Z,34.80
2023-02-11T16:23:58.774Z,35.52
2023-02-11T16:26:25.171Z,36.13
2023-02-11T16:28:51.554Z,35.76
2023-02-11T16:31:18.163Z,37.26
2023-02-11T16:33:44.598Z,37.17
2023-02-11T16:36:11.025Z,35.66
2023-02-11T16:38:37.459Z,36.98
2023-02-11T16:41:03.861Z,36.47
2023-02-11T16:43:30.266Z,36.37
2023-02-11T16:45:56.641Z,37.11
2023-02-11T16:48:23.038Z,37.04
2023-02-11T16:50:52.888Z,37.77
2023-02-11T16:53:19.736Z,37.68
2023-02-11T16:55:46.129Z,38.42
2023-02-11T16:58:12.508Z,38.66
2023-02-11T17:00:38.923Z,39.99
2023-02-11T17:03:05.363Z,40.99
2023-02-11T17:05:37.823Z,40.73
2023-02-11T17:08:09.288Z,40.73
2023-02-11T17:10:35.661Z,41.97
2023-02-11T17:13:02.063Z,43.01
2023-02-11T17:15:28.461Z,42.02
2023-02-11T17:17:54.832Z,43.18
2023-02-11T17:20:21.223Z,43.39
2023-02-11T17:22:47.697Z,44.35
2023-02-11T17:25:14.109Z,42.98
2023-02-11T17:27:40.508Z,41.98
2023-02-11T17:30:06.949Z,42.27
2023-02-11T17:32:33.326Z,41.92
2023-02-11T17:34:59.774Z,42.16
2023-02-11T17:37:26.169Z,41.90
2023-02-11T17:39:52.534Z,41.20
2023-02-11T17:42:18.929Z,40.37
2023-02-11T17:44:45.338Z,41.42
2023-02-11T17:47:11.727Z,42.43
2023-02-11T17:49:38.106Z,42.62
2023-02-11T17:52:04.476Z,41.98
2023-02-11T17:54:30.849Z,42.13
2023-02-11T17:56:58.422Z,42.90
2023-02-11T17:59:25.052Z,42.33
2023-02-11T18:01:51.453Z,42.40
2023-02-11T18:04:17.920Z,42.60
2023-02-11T18:06:44.361Z,41.45
2023-02-11T18:09:10.746Z,40.56
2023-02-11T18:11:37.145Z,41.27
2023-02-11T18:14:03.573Z,42.08
2023-02-11T18:16:30.011Z,43.26
2023-02-11T18:18:56.451Z,42.86
2023-02-11T18:21:22.908Z,41.12
2023-02-11T18:23:49.290Z,40.19
2023-02-11T18:26:15.683Z,39.98
2023-02-11T18:28:45.265Z,40.45
2023-02-11T18:31:12.282Z,41.65
2023-02-11T18:33:38.734Z,40.37
2023-02-11T18:36:05.138Z,40.61
2023-02-11T18:38:31.522Z,41.85
2023-02-11T18:40:57.873Z,41.69
2023-02-11T18:43:24.291Z,42.04
2023-02-11T18:45:51.105Z,40.95
2023-02-11T18:48:17.758Z,40.44
2023-02-11T18:50:44.144Z,41.69
2023-02-11T18:53:10.569Z,41.76
2023-02-11T18:55:37.826Z,41.95
2023-02-11T18:58:04.192Z,42.44
2023-02-11T19:00:30.579Z,43.27
2023-02-11T19:02:56.960Z,43.36
2023-02-11T19:05:23.354Z,41.80
2023-02-11T19:07:49.732Z,41.65
2023-02-11T19:10:16.111Z,41.46
2023-02-11T19:12:42.568Z,42.98
2023-02-11T19:15:08.941Z,43.86
2023-02-11T19:17:35.355Z,43.71
2023-02-11T19:20:01.760Z,43.86
2023-02-11T19:22:28.173Z,43.59
2023-02-11T19:24:54.623Z,43.07
2023-02-11T19:27:20.989Z,43.45
2023-02-11T19:29:47.488Z,43.28
2023-02-11T19:32:13.905Z,41.96
2023-02-11T19:34:40.288Z,42.36
2023-02-11T19:37:06.688Z,41.97
2023-02-11T19:39:33.081Z,41.64
2023-02-11T19:41:59.478Z,42.45
2023-02-11T19:44:25.887Z,41.95
2023-02-11T19:46:52.292Z,43.01
2023-02-11T19:49:18.697Z,42.71
2023-02-11T19:51:45.082Z,44.81
2023-02-11T19:54:11.468Z,42.47
2023-02-11T19:56:37.870Z,43.25
2023-02-11T19:59:04.269Z,43.98
2023-02-11T20:01:30.743Z,42.72
2023-02-11T20:03:57.207Z,43.49
2023-02-11T20:06:23.650Z,43.07
2023-02-11T20:08:50.047Z,43.33
2023-02-11T20:11:16.448Z,43.96
2023-02-11T20:13:42.825Z,43.76
2023-02-11T20:16:09.317Z,44.66
2023-02-11T20:18:35.801Z,43.74
2023-02-11T20:21:02.189Z,44.86
2023-02-11T20:23:28.573Z,44.86
2023-02-11T20:25:54.956Z,46.98
2023-02-11T20:28:21.417Z,47.37
2023-02-11T20:30:47.799Z,46.97
2023-02-11T20:33:14.278Z,46.82
2023-02-11T20:35:40.662Z,45.71
2023-02-11T20:38:07.063Z,46.16
2023-02-11T20:40:33.448Z,46.47
2023-02-11T20:42:59.854Z,45.75
2023-02-11T20:45:26.280Z,46.22
2023-02-11T20:47:52.650Z,46.73
2023-02-11T20:50:19.061Z,46.14
2023-02-11T20:52:45.458Z,46.86
2023-02-11T20:55:11.829Z,44.22
2023-02-11T20:57:38.226Z,43.88
2023-02-11T21:00:04.604Z,43.72
2023-02-11T21:02:31.009Z,43.48
2023-02-11T21:04:57.411Z,42.95
2023-02-11T21:07:23.779Z,43.49
2023-02-11T21:09:50.170Z,44.23
2023-02-11T21:12:16.557Z,42.19
2023-02-11T21:14:42.977Z,41.73
2023-02-11T21:17:09.367Z,42.01
2023-02-11T21:19:35.789Z,42.24
2023-02-11T21:22:02.149Z,41.99
2023-02-11T21:24:28.509Z,42.02
2023-02-11T21:26:54.930Z,40.23
2023-02-11T21:29:21.321Z,40.35
2023-02-11T21:31:47.792Z,41.23
2023-02-11T21:34:14.211Z,40.39
2023-02-11T21:36:40.600Z,40.84
2023-02-11T21:39:07.052Z,41.58
2023-02-11T21:41:33.424Z,40.95
2023-02-11T21:43:59.805Z,39.49
2023-02-11T21:46:26.377Z,40.32
2023-02-11T21:48:52.754Z,40.04
2023-02-11T21:51:19.174Z,39.82
2023-02-11T21:53:45.583Z,40.77
2023-02-11T21:56:11.961Z,41.07
2023-02-11T21:58:38.398Z,39.90
2023-02-11T22:01:04.833Z,39.46
2023-02-11T22:03:31.235Z,41.03
2023-02-11T22:05:57.807Z,41.20
2023-02-11T22:08:24.324Z,40.78
2023-02-11T22:10:54.695Z,41.07
2023-02-11T22:13:21.069Z,39.67
2023-02-11T22:15:47.446Z,41.05
2023-02-11T22:18:14.611Z,42.65
2023-02-11T22:20:41.027Z,43.45
2023-02-11T22:23:07.413Z,40.79
2023-02-11T22:25:35.002Z,42.36
2023-02-11T22:28:01.419Z,41.59
2023-02-11T22:30:28.046Z,41.21
2023-02-11T22:32:54.472Z,42.68
2023-02-11T22:35:20.831Z,42.70
2023-02-11T22:37:47.247Z,42.89
2023-02-11T22:40:13.678Z,45.37
2023-02-11T22:42:40.068Z,44.29
2023-02-11T22:45:06.469Z,43.11
2023-02-11T22:47:32.884Z,43.57
2023-02-11T22:49:59.282Z,42.02
2023-02-11T22:52:25.679Z,41.88
2023-02-11T22:54:52.092Z,41.53
2023-02-11T22:57:18.708Z,41.92
2023-02-11T22:59:45.078Z,40.70
2023-02-11T23:02:11.665Z,39.42
2023-02-11T23:04:38.144Z,39.37
2023-02-11T23:07:05.669Z,40.42
2023-02-11T23:09:32.118Z,41.09
2023-02-11T23:11:58.477Z,41.51
2023-02-11T23:14:26.014Z,41.09
2023-02-11T23:16:52.486Z,40.59
2023-02-11T23:19:19.005Z,41.01
2023-02-11T23:21:45.393Z,41.62
2023-02-11T23:24:13.827Z,40.80
2023-02-11T23:26:40.768Z,40.46
2023-02-11T23:29:07.192Z,41.40
2023-02-11T23:31:33.702Z,40.42
2023-02-11T23:34:00.147Z,40.31
2023-02-11T23:36:26.574Z,40.13
2023-02-11T23:38:52.973Z,40.21
2023-02-11T23:41:19.435Z,41.88
2023-02-11T23:43:45.805Z,40.71
2023-02-11T23:46:12.305Z,41.41
2023-02-11T23:48:38.718Z,40.27
2023-02-11T23:51:05.074Z,40.72
2023-02-11T23:53:31.462Z,40.35
2023-02-11T23:55:57.826Z,40.16
2023-02-11T23:58:24.201Z,40.10
